Aérodrome :
LOGIN :

S'inscrire | Disclaimer

   EN    FR    IT 

 










Légende :    VFR   VFR Marginal   IFR   IFR Intensif   IFR Très Intensif
Visi : 
Plafond : 
>= 8 km
>= 3000ft
5 à 8 km
1000 à 3000 ft
1500m à 5 km
500 à 1000 ft
800 à 1500m
200 à 500 ft
< 800m
< 200 ft
Symboles :   Orages  Brouillard  Fortes neiges  Fortes précipitations  Vent > 20 kt
SIGMETs :   Divers  Orages  Givrage  Turbulence  Onde Orograph.  Cendres Volcan.






- Altitude de l'aérodrome : 26 ft
- Code IATA : GLA


EGPF - Glasgow

DERNIER METAR :
  • 281220Z AUTO 22013KT 9999 SCT022/// //////TCU 04/03 Q0985

METARs EXPIRÉS :
  • 281150Z AUTO 21009KT 9999 FEW026/// //////TCU 04/02 Q0985
  • 281120Z AUTO 20008KT 170V240 9999 NCD 04/02 Q0985
  • 281050Z AUTO 21007KT 9999 -RA FEW040 BKN047 04/02 Q0985
  • 281020Z AUTO 25005KT 9999 SCT020 BKN045 03/01 Q0985
  • 280950Z AUTO 22007KT 9999 -RA FEW018 SCT029 BKN048 02/01 Q0985

TAF TAF EGPF
Valide du 28 à 12h jusqu'au 29 à 12h UTC


281058Z 2812/2912 23009KT 9999 SCT030
TEMPO 2812/2908 25015G25KT 6000 SHRA BKN014CB
PROB40
TEMPO 2812/2815 4000 +SHRA
TEMPO 2908/2912 25015G25KT BKN012
PROB40
TEMPO 2911/2912 6000 RA BKN008
ATIS : +44 141 887 7449



MET'MAP, la Météo Aéronautique d'un coup d'oeil ! - Copyright ORBIFLY Décembre 2007 - Disclaimer

ORBIFLY MET'MAP TEAM :

Programmation & Développement : Alexandra Zaïnal
Sur une idée originale de : Baudouin d'Aumeries
Assistance à la programmation : Marc-Olivier Méhu
Soutien technique & logistique : Manuel Goepfert

Contact : metmap@orbifly.com




SOURCES & CREDITS :

   NOAA